Time;durP1;ratioP1;P1;durP2;ratioP2;P2;SDS_P1;SDS_P2;PMS_P1;PMS_P2;Temp;Humidity;BMP_temperature;BMP_pressure;BME280_temperature;BME280_humidity;BME280_pressure;Samples;Min_cycle;Max_cycle;Signal;HPM_P1;HPM_P2
2022/06/29 00:00:51;;;;;;;6.78;5.10;;;20.80;99.90;;;;;;5052672;28;20029;-79
2022/06/29 00:03:16;;;;;;;6.57;5.28;;;20.80;99.90;;;;;;5052572;28;20426;-79
2022/06/29 00:05:42;;;;;;;8.45;6.07;;;20.80;99.90;;;;;;5052664;28;20071;-80
2022/06/29 00:08:07;;;;;;;8.15;6.03;;;20.70;99.90;;;;;;5052560;28;20052;-79
2022/06/29 00:10:34;;;;;;;8.65;5.55;;;20.70;99.90;;;;;;5053770;28;20071;-80
2022/06/29 00:13:00;;;;;;;6.35;5.57;;;20.60;99.90;;;;;;5052233;28;20032;-79
2022/06/29 00:15:26;;;;;;;9.23;5.75;;;20.60;99.90;;;;;;5052497;28;20021;-80
2022/06/29 00:17:51;;;;;;;9.05;7.05;;;20.60;99.90;;;;;;5052619;28;20025;-79
2022/06/29 00:20:18;;;;;;;9.65;6.55;;;20.50;99.90;;;;;;5052394;28;20484;-79
2022/06/29 00:22:45;;;;;;;6.38;5.78;;;20.50;99.90;;;;;;5052403;28;20350;-79
2022/06/29 00:25:12;;;;;;;11.32;6.60;;;20.50;99.90;;;;;;5053661;28;20453;-80
2022/06/29 00:27:38;;;;;;;8.95;6.13;;;20.40;99.90;;;;;;5052494;28;20033;-79
2022/06/29 00:30:05;;;;;;;7.30;5.97;;;20.40;99.90;;;;;;5052421;28;20033;-79
2022/06/29 00:32:31;;;;;;;7.07;6.38;;;20.40;99.90;;;;;;5052844;28;20074;-79
2022/06/29 00:34:58;;;;;;;8.20;6.50;;;20.30;99.90;;;;;;5053786;28;20029;-79
2022/06/29 00:37:23;;;;;;;8.07;7.28;;;20.30;99.90;;;;;;5052218;28;20036;-80
2022/06/29 00:39:49;;;;;;;11.43;6.97;;;20.20;99.90;;;;;;5053671;28;20099;-79
2022/06/29 00:42:15;;;;;;;13.15;6.45;;;20.20;99.90;;;;;;5053482;28;20025;-79
2022/06/29 00:44:40;;;;;;;7.90;5.93;;;20.20;99.90;;;;;;5052292;28;20075;-80
2022/06/29 00:47:06;;;;;;;8.98;7.20;;;20.10;99.90;;;;;;5053851;28;20473;-80
2022/06/29 00:49:34;;;;;;;7.32;6.60;;;20.10;99.90;;;;;;5057382;28;20120;-80
2022/06/29 00:52:07;;;;;;;8.30;6.82;;;20.10;99.90;;;;;;5056417;28;20021;-80
2022/06/29 00:54:40;;;;;;;6.78;6.10;;;20.10;99.90;;;;;;5056161;28;20025;-79
2022/06/29 00:57:11;;;;;;;7.70;7.00;;;20.00;99.90;;;;;;5055692;28;20140;-79
2022/06/29 00:59:45;;;;;;;10.38;7.00;;;20.00;99.90;;;;;;5057471;28;20031;-79
2022/06/29 01:02:13;;;;;;;7.88;6.55;;;19.90;99.90;;;;;;5057411;28;20368;-79
2022/06/29 01:04:39;;;;;;;9.60;6.88;;;19.90;99.90;;;;;;5055905;28;20029;-79
2022/06/29 01:07:05;;;;;;;6.82;6.22;;;19.90;99.90;;;;;;5055871;28;20036;-79
2022/06/29 01:09:31;;;;;;;8.73;7.43;;;19.90;99.90;;;;;;5057185;28;20112;-79
2022/06/29 01:11:58;;;;;;;8.45;7.05;;;19.80;99.90;;;;;;5056794;28;20109;-80
2022/06/29 01:14:24;;;;;;;8.13;7.40;;;19.80;99.90;;;;;;5055893;28;20032;-80
2022/06/29 01:16:49;;;;;;;8.88;7.95;;;19.80;99.90;;;;;;5056006;28;20457;-80
2022/06/29 01:19:15;;;;;;;11.40;8.27;;;19.70;99.90;;;;;;5055627;28;20375;-80
2022/06/29 01:21:44;;;;;;;8.32;7.63;;;19.70;99.90;;;;;;5056812;28;20135;-79
2022/06/29 01:24:10;;;;;;;8.75;7.50;;;19.70;99.90;;;;;;5056442;28;20496;-80
2022/06/29 01:26:36;;;;;;;9.50;8.45;;;19.60;99.90;;;;;;5055456;28;20115;-79
2022/06/29 01:29:02;;;;;;;9.07;7.57;;;19.60;99.90;;;;;;5055413;28;20036;-79
2022/06/29 01:31:28;;;;;;;11.38;8.68;;;19.60;99.90;;;;;;5055492;28;20078;-79
2022/06/29 01:33:53;;;;;;;9.40;8.50;;;19.60;99.90;;;;;;5055469;28;20033;-79
2022/06/29 01:36:19;;;;;;;8.75;7.95;;;19.60;99.90;;;;;;5055440;28;20025;-79
2022/06/29 01:38:45;;;;;;;8.43;7.63;;;19.60;99.90;;;;;;5055376;28;20457;-79
2022/06/29 01:41:11;;;;;;;9.50;8.70;;;19.60;99.90;;;;;;5054960;28;20124;-79
2022/06/29 01:43:40;;;;;;;9.43;8.60;;;19.50;99.90;;;;;;5056438;28;20083;-79
2022/06/29 01:46:06;;;;;;;8.43;7.70;;;19.50;99.90;;;;;;5055143;28;20029;-79
2022/06/29 01:48:32;;;;;;;8.85;8.10;;;19.50;99.90;;;;;;5055104;28;20025;-79
2022/06/29 01:50:58;;;;;;;10.43;8.98;;;19.40;99.90;;;;;;5054699;28;20021;-79
2022/06/29 01:53:23;;;;;;;13.27;8.52;;;19.40;99.90;;;;;;5056298;28;20111;-80
2022/06/29 01:55:49;;;;;;;10.10;9.13;;;19.40;99.90;;;;;;5056219;28;20029;-79
2022/06/29 01:58:16;;;;;;;11.60;8.18;;;19.40;99.90;;;;;;5056470;28;20048;-79
2022/06/29 02:00:43;;;;;;;10.18;9.07;;;19.40;99.90;;;;;;5055096;28;20052;-79
2022/06/29 02:03:09;;;;;;;29.05;9.88;;;19.30;99.90;;;;;;5054863;28;20041;-79
2022/06/29 02:05:35;;;;;;;10.60;8.48;;;19.40;99.90;;;;;;5054831;28;20429;-81
2022/06/29 02:08:00;;;;;;;11.18;8.68;;;19.30;99.90;;;;;;5055965;28;20051;-79
2022/06/29 02:10:26;;;;;;;11.95;8.77;;;19.40;99.90;;;;;;5055919;28;20036;-80
2022/06/29 02:12:51;;;;;;;10.13;9.13;;;19.40;99.90;;;;;;5056191;28;20086;-79
2022/06/29 02:15:18;;;;;;;11.00;8.93;;;19.30;99.90;;;;;;5054234;28;20452;-79
2022/06/29 02:17:43;;;;;;;15.45;9.07;;;19.30;99.90;;;;;;5055871;28;20028;-80
2022/06/29 02:20:11;;;;;;;9.98;8.77;;;19.40;99.90;;;;;;5055459;28;20115;-79
2022/06/29 02:22:37;;;;;;;11.10;9.05;;;19.40;99.90;;;;;;5054483;28;20434;-79
2022/06/29 02:25:03;;;;;;;12.85;8.82;;;19.40;99.90;;;;;;5055355;28;20100;-79
2022/06/29 02:27:29;;;;;;;10.13;8.75;;;19.40;99.90;;;;;;5054281;28;20523;-79
2022/06/29 02:29:54;;;;;;;10.95;9.20;;;19.40;99.90;;;;;;5054312;28;20032;-79
2022/06/29 02:35:04;;;;;;;9.35;8.45;;;19.40;99.90;;;;;;5055703;28;20036;-79
2022/06/29 02:37:30;;;;;;;10.50;9.40;;;19.40;99.90;;;;;;5054077;28;20025;-79
2022/06/29 02:39:56;;;;;;;9.88;8.18;;;19.40;99.90;;;;;;5054394;28;20051;-79
2022/06/29 02:42:21;;;;;;;10.85;9.15;;;19.50;99.90;;;;;;5055031;28;20472;-79
2022/06/29 02:44:48;;;;;;;10.20;9.10;;;19.50;99.90;;;;;;5055278;28;20154;-79
2022/06/29 02:47:14;;;;;;;12.13;8.85;;;19.40;99.90;;;;;;5053977;28;20491;-79
2022/06/29 02:49:40;;;;;;;12.00;9.10;;;19.40;99.90;;;;;;5054342;28;20029;-79
2022/06/29 02:52:06;;;;;;;9.02;8.13;;;19.40;99.90;;;;;;5053886;28;20361;-79
2022/06/29 02:54:31;;;;;;;10.32;8.52;;;19.40;99.90;;;;;;5053869;28;20461;-79
2022/06/29 02:56:57;;;;;;;9.95;9.00;;;19.30;99.90;;;;;;5053544;28;20055;-80
2022/06/29 02:59:23;;;;;;;9.65;8.80;;;19.30;99.90;;;;;;5055002;28;20033;-80
2022/06/29 03:01:49;;;;;;;11.25;9.50;;;19.30;99.90;;;;;;5053751;28;20032;-79
2022/06/29 03:04:15;;;;;;;9.85;8.85;;;19.30;99.90;;;;;;5054815;28;20029;-80
2022/06/29 03:06:41;;;;;;;10.45;8.95;;;19.30;99.90;;;;;;5053507;28;20079;-79
2022/06/29 03:09:08;;;;;;;11.07;8.95;;;19.20;99.90;;;;;;5053396;28;20029;-79
2022/06/29 03:11:33;;;;;;;14.20;10.40;;;19.20;99.90;;;;;;5053397;28;20024;-79
2022/06/29 03:13:59;;;;;;;10.55;9.05;;;19.20;99.90;;;;;;5053415;28;20376;-80
2022/06/29 03:16:25;;;;;;;11.68;9.45;;;19.30;99.90;;;;;;5053422;28;20047;-79
2022/06/29 03:18:51;;;;;;;10.23;9.20;;;19.30;99.90;;;;;;5054632;28;20025;-79
2022/06/29 03:21:17;;;;;;;9.38;8.38;;;19.30;99.90;;;;;;5053487;28;20025;-79
2022/06/29 03:23:44;;;;;;;10.73;9.20;;;19.30;99.90;;;;;;5053225;28;20362;-79
2022/06/29 03:26:10;;;;;;;10.32;9.25;;;19.30;99.90;;;;;;5053561;28;20021;-79
2022/06/29 03:28:36;;;;;;;10.38;9.15;;;19.30;99.90;;;;;;5054363;28;20025;-79
2022/06/29 03:31:02;;;;;;;10.63;9.63;;;19.30;99.90;;;;;;5054392;28;20025;-80
2022/06/29 03:33:27;;;;;;;13.63;9.38;;;19.30;99.90;;;;;;5054839;28;20485;-80
2022/06/29 03:35:53;;;;;;;11.32;10.07;;;19.30;99.90;;;;;;5054325;28;20036;-79
2022/06/29 03:38:18;;;;;;;10.77;8.82;;;19.30;99.90;;;;;;5052648;28;20024;-79
2022/06/29 03:40:44;;;;;;;10.55;9.05;;;19.40;99.90;;;;;;5052915;28;20123;-79
2022/06/29 03:43:10;;;;;;;13.45;10.05;;;19.40;99.90;;;;;;5054147;28;20029;-79
2022/06/29 03:45:35;;;;;;;9.88;8.88;;;19.50;99.90;;;;;;5054061;28;20083;-79
2022/06/29 03:48:01;;;;;;;10.07;8.80;;;19.50;99.90;;;;;;5052788;28;20025;-79
2022/06/29 03:50:27;;;;;;;12.45;9.95;;;19.60;99.90;;;;;;5054008;28;20041;-64
2022/06/29 03:52:52;;;;;;;10.13;9.18;;;19.60;99.90;;;;;;5052676;28;20036;-64
2022/06/29 03:55:18;;;;;;;10.40;8.95;;;19.70;99.90;;;;;;5053925;28;20483;-64
2022/06/29 03:57:44;;;;;;;9.80;8.90;;;19.80;99.90;;;;;;5053758;28;20049;-64
2022/06/29 04:00:09;;;;;;;10.27;8.63;;;19.90;99.90;;;;;;5053611;28;20025;-64
2022/06/29 04:02:36;;;;;;;10.00;8.60;;;20.00;99.90;;;;;;5054327;28;20025;-65
2022/06/29 04:05:04;;;;;;;10.10;8.90;;;20.10;99.90;;;;;;5053730;28;20094;-64
2022/06/29 04:07:30;;;;;;;9.73;8.15;;;20.30;99.90;;;;;;5053790;28;20025;-66
2022/06/29 04:09:59;;;;;;;9.38;8.40;;;20.40;99.90;;;;;;5053372;28;20178;-65
2022/06/29 04:12:30;;;;;;;10.80;7.35;;;20.50;99.90;;;;;;5053888;28;20028;-65
2022/06/29 04:14:56;;;;;;;8.88;8.00;;;20.60;99.90;;;;;;5053643;28;20389;-65
2022/06/29 04:17:22;;;;;;;8.82;7.82;;;20.70;99.90;;;;;;5053598;28;20025;-65
2022/06/29 04:19:48;;;;;;;11.93;7.95;;;20.70;99.90;;;;;;5053635;28;20029;-65
2022/06/29 04:22:13;;;;;;;9.98;8.30;;;20.80;99.90;;;;;;5053105;28;20033;-65
2022/06/29 04:24:39;;;;;;;10.82;7.50;;;20.90;99.90;;;;;;5053563;28;20021;-65
2022/06/29 04:27:05;;;;;;;8.48;7.55;;;21.00;99.90;;;;;;5053519;28;20382;-65
2022/06/29 04:29:31;;;;;;;9.00;7.75;;;21.10;99.90;;;;;;5053305;28;20421;-65
2022/06/29 04:31:56;;;;;;;9.02;8.18;;;21.20;99.90;;;;;;5053234;28;20021;-65
2022/06/29 04:34:22;;;;;;;9.43;7.75;;;21.30;99.90;;;;;;5053382;28;20044;-66
2022/06/29 04:36:47;;;;;;;8.07;7.20;;;21.50;99.90;;;;;;5053230;28;20087;-75
2022/06/29 04:39:13;;;;;;;11.90;7.97;;;21.60;99.90;;;;;;5046428;28;20036;-74
2022/06/29 04:41:39;;;;;;;7.28;6.57;;;21.70;99.90;;;;;;5032586;28;20030;-75
2022/06/29 04:44:04;;;;;;;9.48;7.65;;;21.90;99.90;;;;;;5035215;28;20408;-75
2022/06/29 04:46:30;;;;;;;9.02;7.80;;;22.10;99.90;;;;;;5043065;28;20036;-73
2022/06/29 04:48:59;;;;;;;7.63;6.90;;;22.20;99.90;;;;;;5053298;28;20041;-72
2022/06/29 04:51:26;;;;;;;;;;;22.40;99.90;;;;;;5051530;28;20029;-75
2022/06/29 04:53:54;;;;;;;8.15;7.38;;;22.50;99.90;;;;;;5042693;28;19924;-75
2022/06/29 04:56:22;;;;;;;9.13;6.97;;;22.60;99.90;;;;;;5040275;28;20051;-75
2022/06/29 04:58:48;;;;;;;8.45;7.65;;;22.70;99.90;;;;;;5051260;28;20033;-75
2022/06/29 05:01:14;;;;;;;8.85;7.65;;;22.70;99.90;;;;;;5053414;28;20029;-75
2022/06/29 05:03:40;;;;;;;9.13;7.82;;;22.80;99.90;;;;;;5053392;28;20112;-76
2022/06/29 05:06:05;;;;;;;10.82;7.25;;;22.80;99.90;;;;;;5053452;28;20025;-76
2022/06/29 05:08:31;;;;;;;10.68;7.97;;;22.80;99.90;;;;;;5053068;28;20032;-76
2022/06/29 05:10:57;;;;;;;12.55;7.82;;;22.80;99.90;;;;;;5052963;28;20044;-75
2022/06/29 05:13:23;;;;;;;10.20;8.18;;;22.90;99.90;;;;;;5053061;28;20056;-75
2022/06/29 05:15:48;;;;;;;8.65;7.38;;;22.90;99.90;;;;;;5053040;28;20025;-75
2022/06/29 05:18:14;;;;;;;9.13;8.00;;;23.40;99.90;;;;;;5052785;28;20112;-76
2022/06/29 05:20:40;;;;;;;8.30;7.28;;;23.10;99.90;;;;;;5053050;28;20036;-75
2022/06/29 05:23:06;;;;;;;8.85;7.85;;;23.20;99.90;;;;;;5053042;28;20039;-75
2022/06/29 05:25:32;;;;;;;8.85;7.47;;;23.30;99.90;;;;;;5052006;28;20428;-76
2022/06/29 05:27:58;;;;;;;10.50;8.75;;;23.50;99.90;;;;;;5051420;28;20021;-76
2022/06/29 05:30:23;;;;;;;8.07;7.38;;;23.60;99.90;;;;;;5052885;28;20033;-77
2022/06/29 05:32:49;;;;;;;14.10;6.82;;;23.70;99.90;;;;;;5051641;28;20029;-76
2022/06/29 05:35:14;;;;;;;8.32;7.60;;;23.90;99.90;;;;;;5054826;28;20463;-75
2022/06/29 05:37:40;;;;;;;8.80;7.50;;;24.10;99.90;;;;;;5056408;28;20025;-76
2022/06/29 05:40:06;;;;;;;8.40;7.47;;;24.30;99.90;;;;;;5056385;28;20036;-75
2022/06/29 05:42:32;;;;;;;8.70;7.28;;;24.40;99.90;;;;;;5056545;28;20021;-75
2022/06/29 05:44:57;;;;;;;10.15;7.32;;;24.40;99.90;;;;;;5056267;28;20028;-75
2022/06/29 05:47:23;;;;;;;8.13;7.10;;;24.50;99.90;;;;;;5056023;28;20025;-75
2022/06/29 05:49:48;;;;;;;8.23;7.43;;;24.70;99.90;;;;;;5054751;28;20040;-75
2022/06/29 05:52:14;;;;;;;8.65;7.80;;;24.80;99.90;;;;;;5054514;28;20042;-75
2022/06/29 05:54:40;;;;;;;8.57;7.78;;;24.90;99.90;;;;;;5054784;28;20025;-75
2022/06/29 05:57:06;;;;;;;9.85;7.25;;;24.90;99.90;;;;;;5054526;28;20362;-75
2022/06/29 05:59:32;;;;;;;8.98;6.85;;;24.90;99.90;;;;;;5055905;28;20111;-75
2022/06/29 06:01:58;;;;;;;8.38;7.43;;;25.00;99.90;;;;;;5055960;28;20029;-75
2022/06/29 06:04:25;;;;;;;12.45;7.65;;;24.80;99.90;;;;;;5055878;28;20070;-75
2022/06/29 06:06:51;;;;;;;11.82;7.78;;;24.70;99.90;;;;;;5055906;28;20112;-75
2022/06/29 06:09:21;;;;;;;8.70;7.82;;;24.60;99.90;;;;;;5054477;28;20039;-75
2022/06/29 06:11:46;;;;;;;10.30;7.93;;;24.70;99.90;;;;;;5054544;28;20021;-74
2022/06/29 06:14:12;;;;;;;8.85;7.95;;;24.60;99.90;;;;;;5055438;28;20033;-75
2022/06/29 06:16:38;;;;;;;12.07;8.23;;;24.60;99.90;;;;;;5054365;28;20116;-74
2022/06/29 06:19:03;;;;;;;9.15;8.25;;;24.70;99.90;;;;;;5055817;28;20031;-75
2022/06/29 06:21:29;;;;;;;9.05;7.40;;;24.80;99.90;;;;;;5054841;28;20033;-74
2022/06/29 06:23:55;;;;;;;10.43;7.68;;;24.70;99.90;;;;;;5053891;28;20025;-75
2022/06/29 06:26:20;;;;;;;10.23;7.90;;;24.70;99.90;;;;;;5055025;28;20032;-75
2022/06/29 06:28:46;;;;;;;8.73;7.68;;;24.80;99.90;;;;;;5055216;28;20124;-74
2022/06/29 06:31:12;;;;;;;9.18;7.72;;;24.90;99.90;;;;;;5055216;28;20021;-75
2022/06/29 06:33:38;;;;;;;8.07;7.28;;;25.10;99.90;;;;;;5055081;28;20025;-75
2022/06/29 06:36:03;;;;;;;9.27;8.10;;;25.30;99.90;;;;;;5053773;28;20459;-75
2022/06/29 06:38:29;;;;;;;9.00;7.47;;;25.40;99.90;;;;;;5054741;28;20021;-75
2022/06/29 06:43:39;;;;;;;10.93;8.13;;;25.50;99.90;;;;;;5054928;28;20038;-74
2022/06/29 06:46:05;;;;;;;9.95;7.90;;;25.50;99.90;;;;;;5054734;28;20025;-75
2022/06/29 06:48:31;;;;;;;11.23;8.57;;;25.50;99.90;;;;;;5054115;28;20025;-75
2022/06/29 06:50:57;;;;;;;8.95;8.15;;;25.60;99.90;;;;;;5055004;28;20029;-75
2022/06/29 06:53:23;;;;;;;14.82;7.82;;;25.50;99.90;;;;;;5055193;28;20082;-75
2022/06/29 06:55:49;;;;;;;8.43;7.57;;;25.40;99.90;;;;;;5055261;28;20036;-75
2022/06/29 06:58:14;;;;;;;8.77;7.93;;;25.60;99.90;;;;;;5053703;28;20073;-75
2022/06/29 07:00:40;;;;;;;9.35;7.95;;;26.00;99.90;;;;;;5053710;28;20146;-75
2022/06/29 07:03:06;;;;;;;8.23;6.75;;;26.10;99.90;;;;;;5054810;28;20519;-76
2022/06/29 07:05:31;;;;;;;11.07;7.80;;;26.10;99.90;;;;;;5054660;28;20033;-75
2022/06/29 07:07:57;;;;;;;8.07;7.28;;;26.30;99.90;;;;;;5054798;28;20484;-75
2022/06/29 07:10:23;;;;;;;9.07;7.63;;;26.30;99.90;;;;;;5054425;28;20041;-75
2022/06/29 07:12:48;;;;;;;9.32;8.40;;;26.40;99.90;;;;;;5054662;28;20501;-75
2022/06/29 07:15:14;;;;;;;9.43;7.70;;;26.90;99.90;;;;;;5054349;28;20207;-75
2022/06/29 07:17:39;;;;;;;9.48;7.13;;;27.40;99.90;;;;;;5054526;28;20040;-75
2022/06/29 07:20:06;;;;;;;12.57;7.13;;;27.90;99.90;;;;;;5053181;28;20025;-75
2022/06/29 07:22:32;;;;;;;16.38;7.93;;;28.50;99.90;;;;;;5054484;28;20043;-75
2022/06/29 07:24:58;;;;;;;7.97;7.20;;;29.10;99.90;;;;;;5054396;28;20376;-75
2022/06/29 07:27:23;;;;;;;11.40;7.40;;;29.60;99.10;;;;;;5053063;28;20413;-75
2022/06/29 07:29:52;;;;;;;12.23;7.55;;;29.70;98.00;;;;;;5054288;28;20048;-75
2022/06/29 07:32:20;;;;;;;;;;;29.80;97.40;;;;;;5054504;28;20115;-75
2022/06/29 07:34:47;;;;;;;;;;;29.60;97.00;;;;;;5054614;28;19959;-75
2022/06/29 07:37:12;;;;;;;11.43;7.88;;;29.70;97.30;;;;;;5052746;28;19911;-75
2022/06/29 07:39:38;;;;;;;8.70;7.80;;;29.70;96.10;;;;;;5054093;28;20025;-75
2022/06/29 07:42:04;;;;;;;13.27;7.85;;;29.40;97.00;;;;;;5052840;28;20112;-75
2022/06/29 07:44:31;;;;;;;9.55;7.55;;;29.70;96.20;;;;;;5054162;28;20025;-76
2022/06/29 07:46:56;;;;;;;9.90;7.20;;;30.00;95.90;;;;;;5052678;28;20385;-76
2022/06/29 07:49:23;;;;;;;9.13;7.65;;;30.60;95.60;;;;;;5053946;28;20037;-75
2022/06/29 07:51:49;;;;;;;13.45;9.00;;;30.60;94.70;;;;;;5053594;28;20115;-76
2022/06/29 07:54:15;;;;;;;17.83;7.78;;;30.40;92.50;;;;;;5052474;28;20025;-76
2022/06/29 07:56:41;;;;;;;16.80;8.98;;;30.70;93.00;;;;;;5051951;28;20045;-78
2022/06/29 07:59:06;;;;;;;13.95;8.13;;;30.80;91.00;;;;;;5053463;28;20362;-75
2022/06/29 08:01:32;;;;;;;13.43;8.15;;;30.70;91.10;;;;;;5053295;28;20032;-76
2022/06/29 08:03:58;;;;;;;8.23;7.43;;;31.00;90.90;;;;;;5052567;28;20483;-76
2022/06/29 08:06:24;;;;;;;10.65;8.13;;;31.00;89.30;;;;;;5053801;28;20025;-76
2022/06/29 08:08:50;;;;;;;12.35;7.90;;;31.10;88.00;;;;;;5053647;28;20033;-76
2022/06/29 08:11:16;;;;;;;14.43;7.82;;;31.50;87.50;;;;;;5052414;28;20084;-76
2022/06/29 08:13:42;;;;;;;10.35;6.97;;;31.80;84.90;;;;;;5052473;28;20029;-76
2022/06/29 08:16:08;;;;;;;8.98;6.78;;;32.40;83.00;;;;;;5052337;28;20032;-77
2022/06/29 08:18:35;;;;;;;13.95;7.43;;;33.10;78.30;;;;;;5053302;28;20079;-77
2022/06/29 08:21:02;;;;;;;13.23;6.75;;;33.20;74.20;;;;;;5052244;28;20459;-77
2022/06/29 08:23:28;;;;;;;8.05;6.80;;;33.30;74.60;;;;;;5052186;28;20028;-77
2022/06/29 08:25:54;;;;;;;7.20;6.22;;;33.20;73.30;;;;;;5053765;28;20471;-77
2022/06/29 08:28:19;;;;;;;9.70;5.85;;;33.50;74.50;;;;;;5052172;28;20036;-76
2022/06/29 08:30:46;;;;;;;6.97;5.90;;;33.60;68.00;;;;;;5052374;28;20154;-76
2022/06/29 08:33:12;;;;;;;10.05;5.57;;;33.90;67.70;;;;;;5051916;28;20040;-76
2022/06/29 08:35:37;;;;;;;6.63;5.43;;;33.50;67.10;;;;;;5052158;28;20021;-77
2022/06/29 08:38:03;;;;;;;10.80;5.57;;;33.30;66.90;;;;;;5052957;28;20036;-76
2022/06/29 08:40:47;;;;;;;9.13;5.60;;;33.50;67.00;;;;;;5053396;28;20111;-75
2022/06/29 08:43:15;;;;;;;5.75;5.10;;;34.00;63.30;;;;;;5054091;28;20025;-76
2022/06/29 08:45:45;;;;;;;11.82;6.82;;;34.10;62.50;;;;;;5052180;28;20033;-76
2022/06/29 08:48:12;;;;;;;12.50;5.25;;;33.80;63.70;;;;;;5053225;28;20056;-77
2022/06/29 08:50:40;;;;;;;7.13;5.40;;;33.60;63.60;;;;;;5051987;28;20426;-77
2022/06/29 08:53:07;;;;;;;10.43;5.40;;;34.00;64.00;;;;;;5053037;28;20060;-77
2022/06/29 08:55:40;;;;;;;10.88;6.57;;;34.40;62.80;;;;;;5052418;28;20316;-77
2022/06/29 08:58:06;;;;;;;13.10;6.55;;;34.30;62.00;;;;;;5051712;28;20052;-76
2022/06/29 09:00:36;;;;;;;6.95;6.05;;;34.20;60.80;;;;;;5053172;28;20029;-76
2022/06/29 09:03:04;;;;;;;5.82;5.28;;;33.70;61.90;;;;;;5051939;28;20029;-77
2022/06/29 09:05:30;;;;;;;7.60;5.30;;;33.90;62.10;;;;;;5053211;28;20032;-77
2022/06/29 09:07:56;;;;;;;10.40;5.50;;;34.20;61.70;;;;;;5053466;28;20044;-77
2022/06/29 09:10:23;;;;;;;6.03;4.97;;;34.00;60.00;;;;;;5056951;28;20033;-76
2022/06/29 09:12:52;;;;;;;9.93;6.57;;;33.90;60.80;;;;;;5055382;28;20064;-76
2022/06/29 09:15:32;;;;;;;9.60;7.18;;;32.80;68.90;;;;;;5056977;28;20028;-77
2022/06/29 09:17:58;;;;;;;8.68;6.95;;;32.40;73.80;;;;;;5057093;28;20036;-76
2022/06/29 09:20:24;;;;;;;8.43;7.30;;;31.60;77.20;;;;;;5056786;28;20036;-77
2022/06/29 09:22:52;;;;;;;7.60;6.90;;;31.20;80.30;;;;;;5056964;28;20375;-77
2022/06/29 09:25:28;;;;;;;11.70;7.80;;;30.50;85.20;;;;;;5056596;28;20053;-76
2022/06/29 09:27:55;;;;;;;12.75;7.32;;;30.20;90.30;;;;;;5055601;28;20120;-76
2022/06/29 09:30:29;;;;;;;8.18;7.35;;;30.10;92.10;;;;;;5056510;28;20060;-76
2022/06/29 09:33:13;;;;;;;8.05;6.85;;;30.20;92.80;;;;;;5056301;28;20492;-76
2022/06/29 09:35:40;;;;;;;9.95;7.10;;;30.80;92.70;;;;;;5056631;28;20052;-76
2022/06/29 09:38:22;;;;;;;8.48;7.65;;;30.80;92.00;;;;;;5055237;28;20499;-78
2022/06/29 09:41:06;;;;;;;8.23;7.50;;;31.40;90.70;;;;;;5055103;28;20029;-79
2022/06/29 09:43:34;;;;;;;9.00;7.93;;;32.00;88.50;;;;;;5055065;28;20436;-77
2022/06/29 09:46:00;;;;;;;7.53;6.88;;;32.70;84.60;;;;;;5056388;28;20111;-78
2022/06/29 09:48:27;;;;;;;10.45;7.20;;;33.00;82.20;;;;;;5054949;28;20025;-77
2022/06/29 09:50:55;;;;;;;10.02;8.07;;;33.20;81.80;;;;;;5055844;28;20048;-76
2022/06/29 09:53:39;;;;;;;10.55;7.30;;;33.30;80.50;;;;;;5054891;28;20416;-78
2022/06/29 09:56:07;;;;;;;8.13;7.47;;;33.60;78.70;;;;;;5055277;28;20021;-80
2022/06/29 09:58:44;;;;;;;8.43;7.00;;;34.00;76.60;;;;;;5054924;28;20095;-79
2022/06/29 10:03:57;;;;;;;8.18;7.13;;;33.60;76.40;;;;;;5055764;28;20031;-77
2022/06/29 10:06:24;;;;;;;7.93;6.90;;;34.10;74.60;;;;;;5056055;28;20025;-77
2022/06/29 10:08:51;;;;;;;9.07;7.68;;;34.20;73.80;;;;;;5055679;28;20036;-77
2022/06/29 10:14:43;;;;;;;7.72;6.93;;;34.50;71.60;;;;;;5053922;28;20051;-77
2022/06/29 10:17:12;;;;;;;9.63;7.32;;;34.60;72.00;;;;;;5055764;28;20056;-77
2022/06/29 10:19:49;;;;;;;13.65;7.07;;;34.80;70.10;;;;;;5055473;28;20024;-77
2022/06/29 10:22:15;;;;;;;7.70;7.00;;;35.20;68.90;;;;;;5054142;28;20037;-77
2022/06/29 10:25:01;;;;;;;8.07;7.38;;;35.30;67.50;;;;;;5055230;28;20040;-77
2022/06/29 10:27:26;;;;;;;8.68;7.28;;;35.10;67.60;;;;;;5055703;28;20139;-77
2022/06/29 10:30:22;;;;;;;7.47;6.88;;;34.90;68.10;;;;;;5054098;28;20104;-77
2022/06/29 10:32:49;;;;;;;7.95;7.25;;;35.20;68.60;;;;;;5054165;28;20063;-79
2022/06/29 10:35:14;;;;;;;7.65;7.05;;;35.30;66.90;;;;;;5054726;28;20060;-77
2022/06/29 10:37:52;;;;;;;9.23;7.63;;;34.80;67.80;;;;;;5055253;28;20430;-77
2022/06/29 10:40:24;;;;;;;8.65;7.70;;;34.10;68.30;;;;;;5054551;28;20091;-77
2022/06/29 10:43:09;;;;;;;11.45;7.95;;;33.90;70.70;;;;;;5054403;28;20057;-78
2022/06/29 10:45:42;;;;;;;9.63;7.70;;;33.90;69.80;;;;;;5054314;28;20025;-77
2022/06/29 10:48:07;;;;;;;8.82;7.60;;;33.70;71.40;;;;;;5054103;28;20061;-77
2022/06/29 10:50:34;;;;;;;8.45;7.57;;;34.00;70.50;;;;;;5053972;28;20445;-77
2022/06/29 10:53:05;;;;;;;8.15;7.07;;;34.20;70.50;;;;;;5053810;28;20358;-77
2022/06/29 10:55:36;;;;;;;11.18;7.43;;;34.70;69.10;;;;;;5054128;28;20388;-78
2022/06/29 10:58:03;;;;;;;9.13;7.13;;;35.10;67.80;;;;;;5053915;28;20048;-78
2022/06/29 11:00:33;;;;;;;7.15;6.45;;;35.20;66.80;;;;;;5054227;28;20447;-78
2022/06/29 11:03:15;;;;;;;6.97;6.38;;;35.50;65.90;;;;;;5054856;28;20134;-78
2022/06/29 11:14:02;;;;;;;8.13;7.32;;;36.20;62.60;;;;;;5054337;28;20083;-78
2022/06/29 11:16:36;;;;;;;7.38;6.20;;;36.20;62.10;;;;;;5053428;28;20099;-78
2022/06/29 11:19:02;;;;;;;8.57;7.25;;;36.20;63.20;;;;;;5054632;28;20028;-78
2022/06/29 11:21:31;;;;;;;7.50;6.82;;;36.10;62.70;;;;;;5054482;28;20079;-78
2022/06/29 11:24:04;;;;;;;9.90;6.95;;;36.00;61.90;;;;;;5054434;28;20021;-78
2022/06/29 11:26:32;;;;;;;8.65;7.07;;;35.60;63.10;;;;;;5054712;28;20465;-77
2022/06/29 11:28:57;;;;;;;7.28;6.63;;;35.10;63.70;;;;;;5052878;28;20025;-78
2022/06/29 11:31:24;;;;;;;9.35;7.15;;;34.60;65.50;;;;;;5052959;28;20370;-77
2022/06/29 11:33:52;;;;;;;9.90;7.20;;;35.10;65.30;;;;;;5052942;28;20124;-78
2022/06/29 11:36:27;;;;;;;9.18;7.25;;;35.60;64.00;;;;;;5054274;28;20415;-79
2022/06/29 11:38:56;;;;;;;10.80;6.72;;;35.40;63.30;;;;;;5052889;28;20087;-77
2022/06/29 11:41:26;;;;;;;7.28;6.57;;;34.40;65.40;;;;;;5053890;28;20419;-77
2022/06/29 11:43:58;;;;;;;8.13;6.80;;;33.80;67.70;;;;;;5053687;28;20484;-78
2022/06/29 11:46:26;;;;;;;8.35;6.97;;;33.50;68.90;;;;;;5054068;28;20090;-77
2022/06/29 11:51:52;;;;;;;9.18;6.95;;;34.90;67.30;;;;;;5054027;28;20094;-77
2022/06/29 11:54:32;;;;;;;10.25;6.63;;;35.90;64.90;;;;;;5052789;28;20427;-77
2022/06/29 11:56:58;;;;;;;8.48;7.65;;;36.70;62.70;;;;;;5053540;28;20049;-77
2022/06/29 11:59:23;;;;;;;8.40;7.20;;;36.60;62.00;;;;;;5052516;28;20139;-78
2022/06/29 12:01:52;;;;;;;7.20;6.50;;;35.90;62.30;;;;;;5053702;28;20045;-77
2022/06/29 12:04:29;;;;;;;11.77;7.88;;;35.50;64.00;;;;;;5053725;28;20025;-79
2022/06/29 12:07:09;;;;;;;8.45;7.80;;;36.10;62.80;;;;;;5053846;28;20052;-77
2022/06/29 12:09:37;;;;;;;6.65;5.97;;;35.90;63.00;;;;;;5052321;28;20033;-77
2022/06/29 12:12:03;;;;;;;8.48;5.97;;;35.60;63.20;;;;;;5052382;28;20465;-77
2022/06/29 12:14:29;;;;;;;9.48;6.72;;;36.40;62.70;;;;;;5053015;28;20468;-77
2022/06/29 12:16:55;;;;;;;7.15;6.45;;;36.30;60.70;;;;;;5052600;28;20033;-77
2022/06/29 12:19:21;;;;;;;6.85;6.15;;;35.40;61.80;;;;;;5053592;28;20021;-77
2022/06/29 12:21:48;;;;;;;6.85;5.70;;;35.40;62.50;;;;;;5053073;28;20031;-77
2022/06/29 12:24:15;;;;;;;9.10;5.90;;;35.50;63.30;;;;;;5053452;28;20552;-78
2022/06/29 12:26:40;;;;;;;7.75;5.63;;;35.70;62.10;;;;;;5053687;28;20029;-77
2022/06/29 12:29:06;;;;;;;6.15;5.50;;;35.70;62.40;;;;;;5052157;28;20036;-77
2022/06/29 12:31:32;;;;;;;6.35;5.38;;;35.40;60.80;;;;;;5052149;28;20033;-78
2022/06/29 12:33:57;;;;;;;6.60;5.82;;;34.80;61.60;;;;;;5052119;28;20115;-77
2022/06/29 12:36:23;;;;;;;13.00;6.25;;;35.10;61.80;;;;;;5053459;28;20060;-78
2022/06/29 12:38:49;;;;;;;8.77;5.28;;;35.50;61.10;;;;;;5052086;28;20059;-77
2022/06/29 12:41:14;;;;;;;6.50;5.43;;;35.60;60.40;;;;;;5053194;28;20029;-79
2022/06/29 12:43:40;;;;;;;5.05;4.60;;;36.20;59.50;;;;;;5053146;28;20083;-78
2022/06/29 12:46:07;;;;;;;5.07;4.68;;;36.40;57.80;;;;;;5056317;28;20029;-78
2022/06/29 12:48:32;;;;;;;5.93;5.00;;;35.90;57.60;;;;;;5055746;28;20111;-78
2022/06/29 12:50:58;;;;;;;6.10;5.55;;;35.50;59.80;;;;;;5057351;28;20033;-78
2022/06/29 12:53:24;;;;;;;6.70;5.47;;;35.20;65.40;;;;;;5056242;28;20032;-78
2022/06/29 12:55:49;;;;;;;12.35;5.70;;;34.60;65.20;;;;;;5055916;28;20029;-78
2022/06/29 12:58:15;;;;;;;10.98;6.43;;;33.60;66.20;;;;;;5057208;28;20060;-78
2022/06/29 13:00:41;;;;;;;8.18;5.68;;;33.30;70.10;;;;;;5056041;28;20047;-78
2022/06/29 13:03:06;;;;;;;5.90;5.38;;;33.60;71.60;;;;;;5057327;28;20028;-78
2022/06/29 13:05:32;;;;;;;10.10;6.00;;;34.20;66.90;;;;;;5055450;28;20024;-77